createdAt,value
2022-12-19T00:02:32.943Z,-9.71
2022-12-19T00:05:23.137Z,-9.74
2022-12-19T00:08:20.922Z,-9.76
2022-12-19T00:10:56.210Z,-9.76
2022-12-19T00:13:27.874Z,-9.78
2022-12-19T00:16:26.767Z,-9.78
2022-12-19T00:18:58.257Z,-9.80
2022-12-19T00:21:49.091Z,-9.82
2022-12-19T00:24:38.607Z,-9.82
2022-12-19T00:27:28.250Z,-9.83
2022-12-19T00:30:26.529Z,-9.85
2022-12-19T00:32:55.310Z,-9.87
2022-12-19T00:35:43.348Z,-9.89
2022-12-19T00:38:31.626Z,-9.89
2022-12-19T00:41:22.037Z,-9.91
2022-12-19T00:44:13.270Z,-9.90
2022-12-19T00:46:45.144Z,-9.92
2022-12-19T00:49:43.148Z,-9.91
2022-12-19T00:52:36.866Z,-9.90
2022-12-19T00:55:27.064Z,-9.88
2022-12-19T00:58:15.579Z,-9.87
2022-12-19T01:01:12.582Z,-9.84
2022-12-19T01:04:27.852Z,-9.84
2022-12-19T01:06:53.492Z,-9.83
2022-12-19T01:09:42.959Z,-9.81
2022-12-19T01:12:48.320Z,-9.79
2022-12-19T01:15:43.238Z,-9.78
2022-12-19T01:18:31.713Z,-9.77
2022-12-19T01:21:26.068Z,-9.76
2022-12-19T01:23:59.405Z,-9.75
2022-12-19T01:26:54.709Z,-9.77
2022-12-19T01:29:51.740Z,-9.76
2022-12-19T01:32:43.606Z,-9.76
2022-12-19T01:35:33.228Z,-9.78
2022-12-19T01:38:22.321Z,-9.79
2022-12-19T01:41:13.617Z,-9.81
2022-12-19T01:44:12.658Z,-9.81
2022-12-19T01:47:04.370Z,-9.81
2022-12-19T01:49:53.949Z,-9.80
2022-12-19T01:52:44.540Z,-9.81
2022-12-19T01:55:34.484Z,-9.80
2022-12-19T01:58:29.808Z,-9.80
2022-12-19T02:01:24.359Z,-9.78
2022-12-19T02:04:17.774Z,-9.75
2022-12-19T02:07:15.138Z,-9.73
2022-12-19T02:09:57.079Z,-9.70
2022-12-19T02:12:55.800Z,-9.68
2022-12-19T02:16:00.494Z,-9.66
2022-12-19T02:18:57.513Z,-9.65
2022-12-19T02:21:55.945Z,-9.62
2022-12-19T02:25:15.593Z,-9.62
2022-12-19T02:28:31.568Z,-9.61
2022-12-19T02:31:16.797Z,-9.62
2022-12-19T02:34:17.254Z,-9.64
2022-12-19T02:37:18.922Z,-9.65
2022-12-19T02:40:16.420Z,-9.65
2022-12-19T02:43:09.829Z,-9.66
2022-12-19T02:46:06.554Z,-9.65
2022-12-19T02:48:59.142Z,-9.65
2022-12-19T02:51:49.444Z,-9.62
2022-12-19T02:54:42.364Z,-9.59
2022-12-19T02:57:52.982Z,-9.60
2022-12-19T03:00:54.979Z,-9.58
2022-12-19T03:04:02.151Z,-9.57
2022-12-19T03:06:58.211Z,-9.56
2022-12-19T03:09:37.636Z,-9.57
2022-12-19T03:12:17.126Z,-9.57
2022-12-19T03:14:50.208Z,-9.57
2022-12-19T03:17:40.591Z,-9.56
2022-12-19T03:20:22.137Z,-9.55
2022-12-19T03:23:12.075Z,-9.55
2022-12-19T03:25:53.449Z,-9.57
2022-12-19T03:28:46.926Z,-9.57
2022-12-19T03:31:39.034Z,-9.57
2022-12-19T03:34:14.799Z,-9.56
2022-12-19T03:36:51.852Z,-9.54
2022-12-19T03:39:47.236Z,-9.53
2022-12-19T03:42:55.951Z,-9.52
2022-12-19T03:45:48.758Z,-9.49
2022-12-19T03:48:44.406Z,-9.46
2022-12-19T03:51:32.274Z,-9.45
2022-12-19T03:54:26.169Z,-9.43
2022-12-19T03:57:21.357Z,-9.42
2022-12-19T04:00:14.898Z,-9.41
2022-12-19T04:03:11.825Z,-9.40
2022-12-19T04:06:07.730Z,-9.36
2022-12-19T04:08:58.621Z,-9.35
2022-12-19T04:11:51.465Z,-9.33
2022-12-19T04:14:40.637Z,-9.30
2022-12-19T04:17:37.170Z,-9.30
2022-12-19T04:20:32.659Z,-9.27
2022-12-19T04:23:31.603Z,-9.24
2022-12-19T04:26:21.244Z,-9.22
2022-12-19T04:28:57.970Z,-9.19
2022-12-19T04:32:03.227Z,-9.16
2022-12-19T04:34:43.298Z,-9.15
2022-12-19T04:37:33.013Z,-9.11
2022-12-19T04:40:42.676Z,-9.07
2022-12-19T04:43:35.871Z,-9.04
2022-12-19T04:46:09.424Z,-9.00
2022-12-19T04:48:59.947Z,-8.96
2022-12-19T04:51:58.000Z,-8.92
2022-12-19T04:54:26.532Z,-8.87
2022-12-19T04:57:54.949Z,-8.81
2022-12-19T05:00:37.291Z,-8.80
2022-12-19T05:03:31.495Z,-8.76
2022-12-19T05:06:27.107Z,-8.74
2022-12-19T05:09:22.967Z,-8.74
2022-12-19T05:12:18.923Z,-8.75
2022-12-19T05:15:16.449Z,-8.76
2022-12-19T05:18:07.358Z,-8.77
2022-12-19T05:24:14.805Z,-8.79
2022-12-19T05:26:53.553Z,-8.80
2022-12-19T05:29:44.295Z,-8.79
2022-12-19T05:32:16.241Z,-8.80
2022-12-19T05:34:56.745Z,-8.81
2022-12-19T05:37:32.424Z,-8.83
2022-12-19T05:40:10.648Z,-8.85
2022-12-19T05:43:05.130Z,-8.87
2022-12-19T05:46:00.848Z,-8.88
2022-12-19T05:48:55.860Z,-8.90
2022-12-19T05:51:50.165Z,-8.93
2022-12-19T05:54:40.819Z,-8.94
2022-12-19T05:57:28.057Z,-8.95
2022-12-19T06:00:20.161Z,-8.95
2022-12-19T06:03:14.863Z,-8.95
2022-12-19T06:06:08.121Z,-8.95
2022-12-19T06:09:03.274Z,-8.89
2022-12-19T06:12:09.088Z,-8.82
2022-12-19T06:14:46.581Z,-8.74
2022-12-19T06:17:17.016Z,-8.65
2022-12-19T06:19:48.762Z,-8.55
2022-12-19T06:22:23.405Z,-8.45
2022-12-19T06:25:14.171Z,-8.34
2022-12-19T06:27:47.508Z,-8.27
2022-12-19T06:30:40.593Z,-8.22
2022-12-19T06:33:11.107Z,-8.16
2022-12-19T06:35:41.784Z,-8.09
2022-12-19T06:38:12.571Z,-8.01
2022-12-19T06:41:02.558Z,-7.93
2022-12-19T06:43:33.022Z,-7.87
2022-12-19T06:46:03.536Z,-7.86
2022-12-19T06:48:34.424Z,-7.90
2022-12-19T06:51:05.326Z,-7.94
2022-12-19T06:53:36.113Z,-7.96
2022-12-19T06:56:07.569Z,-7.97
2022-12-19T06:58:38.146Z,-7.99
2022-12-19T07:01:08.672Z,-7.96
2022-12-19T07:03:42.282Z,-7.93
2022-12-19T07:06:12.632Z,-7.85
2022-12-19T07:08:43.097Z,-7.75
2022-12-19T07:11:13.720Z,-7.69
2022-12-19T07:13:44.136Z,-7.64
2022-12-19T07:16:14.803Z,-7.60
2022-12-19T07:18:45.403Z,-7.55
2022-12-19T07:21:15.947Z,-7.49
2022-12-19T07:23:46.930Z,-7.43
2022-12-19T07:26:17.397Z,-7.31
2022-12-19T07:28:48.715Z,-7.19
2022-12-19T07:31:19.093Z,-7.08
2022-12-19T07:33:49.633Z,-7.01
2022-12-19T07:36:20.141Z,-6.95
2022-12-19T07:38:50.782Z,-6.89
2022-12-19T07:41:24.347Z,-6.84
2022-12-19T07:43:54.746Z,-6.75
2022-12-19T07:46:25.109Z,-6.64
2022-12-19T07:48:55.428Z,-6.51
2022-12-19T07:51:25.901Z,-6.41
2022-12-19T07:53:56.276Z,-6.31
2022-12-19T07:56:26.949Z,-6.22
2022-12-19T07:58:57.465Z,-6.09
2022-12-19T08:01:28.255Z,-5.96
2022-12-19T08:04:00.148Z,-5.81
2022-12-19T08:06:30.738Z,-5.66
2022-12-19T08:09:01.168Z,-5.50
2022-12-19T08:11:31.576Z,-5.36
2022-12-19T08:14:01.910Z,-5.25
2022-12-19T08:16:49.281Z,-5.13
2022-12-19T08:19:27.559Z,-5.00
2022-12-19T08:21:58.308Z,-4.88
2022-12-19T08:24:28.628Z,-4.78
2022-12-19T08:26:58.997Z,-4.68
2022-12-19T08:29:29.411Z,-4.59
2022-12-19T08:31:59.829Z,-4.51
2022-12-19T08:34:30.389Z,-4.45
2022-12-19T08:37:00.722Z,-4.42
2022-12-19T08:39:31.014Z,-4.42
2022-12-19T08:42:04.587Z,-4.42
2022-12-19T08:44:34.999Z,-4.41
2022-12-19T08:47:05.529Z,-4.41
2022-12-19T08:49:35.985Z,-4.42
2022-12-19T08:52:06.358Z,-4.41
2022-12-19T08:54:36.746Z,-4.40
2022-12-19T08:57:07.258Z,-4.36
2022-12-19T08:59:37.608Z,-4.30
2022-12-19T09:02:10.622Z,-4.23
2022-12-19T09:05:58.653Z,-4.15
2022-12-19T09:07:31.766Z,-4.04
2022-12-19T09:10:03.024Z,-3.91
2022-12-19T09:12:33.408Z,-3.80
2022-12-19T09:15:03.816Z,-3.70
2022-12-19T09:17:34.426Z,-3.62
2022-12-19T09:20:05.444Z,-3.55
2022-12-19T09:22:35.845Z,-3.48
2022-12-19T09:25:07.437Z,-3.41
2022-12-19T09:28:01.139Z,-3.34
2022-12-19T09:30:29.163Z,-3.27
2022-12-19T09:33:01.361Z,-3.18
2022-12-19T09:35:31.769Z,-3.10
2022-12-19T09:38:03.589Z,-3.04
2022-12-19T09:40:47.508Z,-2.99
2022-12-19T09:43:24.856Z,-2.92
2022-12-19T09:46:04.729Z,-2.87
2022-12-19T09:48:35.044Z,-2.84
2022-12-19T09:51:11.409Z,-2.79
2022-12-19T09:53:57.561Z,-2.73
2022-12-19T09:56:46.465Z,-2.67
2022-12-19T09:59:27.658Z,-2.62
2022-12-19T10:02:14.540Z,-2.56
2022-12-19T10:04:53.259Z,-2.50
2022-12-19T10:07:53.326Z,-2.45
2022-12-19T10:12:35.712Z,-2.40
2022-12-19T10:13:44.880Z,-2.40
2022-12-19T10:16:26.925Z,-2.34
2022-12-19T10:18:59.448Z,-2.27
2022-12-19T10:25:08.529Z,-2.14
2022-12-19T10:27:59.542Z,-2.04
2022-12-19T10:30:36.945Z,-1.95
2022-12-19T10:33:21.012Z,-1.88
2022-12-19T10:36:01.861Z,-1.81
2022-12-19T10:38:38.344Z,-1.74
2022-12-19T10:41:18.931Z,-1.67
2022-12-19T10:43:57.362Z,-1.60
2022-12-19T10:46:37.587Z,-1.51
2022-12-19T10:49:15.013Z,-1.43
2022-12-19T10:51:59.005Z,-1.35
2022-12-19T10:54:41.583Z,-1.24
2022-12-19T10:57:25.524Z,-1.11
2022-12-19T11:00:01.137Z,-0.96
2022-12-19T11:02:41.348Z,-0.81
2022-12-19T11:05:26.477Z,-0.64
2022-12-19T11:08:12.161Z,-0.44
2022-12-19T11:12:53.139Z,-0.17
2022-12-19T11:17:34.476Z,0.06
2022-12-19T11:24:07.925Z,0.25
2022-12-19T11:29:39.121Z,0.40
2022-12-19T11:29:39.640Z,0.60
2022-12-19T11:30:05.776Z,0.52
2022-12-19T11:30:35.803Z,0.66
2022-12-19T11:34:19.019Z,0.72
2022-12-19T11:36:53.509Z,0.74
2022-12-19T11:39:27.112Z,0.77
2022-12-19T11:42:04.714Z,0.78
2022-12-19T11:44:41.195Z,0.80
2022-12-19T11:47:22.229Z,0.82
2022-12-19T11:49:56.395Z,0.84
2022-12-19T11:55:33.932Z,0.88
2022-12-19T11:58:04.341Z,0.91
2022-12-19T12:00:35.888Z,0.94
2022-12-19T12:03:22.697Z,0.95
2022-12-19T12:05:56.593Z,0.94
2022-12-19T12:12:08.959Z,0.95
2022-12-19T12:19:39.182Z,0.96
2022-12-19T12:21:15.837Z,0.97
2022-12-19T12:27:09.735Z,0.94
2022-12-19T12:31:05.688Z,0.96
2022-12-19T12:31:22.533Z,0.95
2022-12-19T12:31:55.328Z,1.01
2022-12-19T12:32:00.351Z,0.99
2022-12-19T12:35:38.338Z,1.05
2022-12-19T12:39:16.048Z,1.06
2022-12-19T12:42:06.523Z,1.07
2022-12-19T12:44:45.258Z,1.07
2022-12-19T12:47:20.546Z,1.10
2022-12-19T12:49:55.480Z,1.17
2022-12-19T12:52:30.807Z,1.24
2022-12-19T12:55:01.564Z,1.32
2022-12-19T12:57:39.658Z,1.52
2022-12-19T13:00:26.516Z,1.83
2022-12-19T13:03:05.536Z,2.19
2022-12-19T13:05:53.357Z,2.47
2022-12-19T13:08:40.828Z,2.74
2022-12-19T13:11:36.987Z,2.83
2022-12-19T13:14:30.067Z,2.84
2022-12-19T13:17:01.192Z,2.86
2022-12-19T13:19:34.004Z,2.63
2022-12-19T13:22:20.190Z,2.29
2022-12-19T13:24:52.756Z,2.05
2022-12-19T13:27:41.322Z,1.82
2022-12-19T13:30:22.184Z,1.60
2022-12-19T13:33:12.843Z,1.40
2022-12-19T13:39:02.883Z,1.25
2022-12-19T13:39:57.713Z,1.09
2022-12-19T13:42:01.775Z,0.92
2022-12-19T13:44:37.363Z,0.80
2022-12-19T13:47:08.596Z,0.72
2022-12-19T13:49:39.570Z,0.64
2022-12-19T13:52:14.283Z,0.55
2022-12-19T13:54:51.778Z,0.48
2022-12-19T13:57:28.196Z,0.39
2022-12-19T14:00:01.865Z,0.31
2022-12-19T14:02:48.071Z,0.24
2022-12-19T14:05:48.516Z,0.18
2022-12-19T14:08:21.964Z,0.11
2022-12-19T14:11:37.097Z,0.05
2022-12-19T14:14:16.384Z,0.01
2022-12-19T14:16:51.896Z,-0.06
2022-12-19T14:19:25.016Z,-0.11
2022-12-19T14:22:11.706Z,-0.15
2022-12-19T14:26:06.517Z,-0.18
2022-12-19T14:28:25.301Z,-0.21
2022-12-19T14:30:44.894Z,-0.23
2022-12-19T14:33:44.434Z,-0.24
2022-12-19T14:36:17.439Z,-0.27
2022-12-19T14:39:24.399Z,-0.30
2022-12-19T14:42:06.478Z,-0.31
2022-12-19T14:54:01.593Z,-0.34
2022-12-19T14:54:22.221Z,-0.32
2022-12-19T14:54:26.939Z,-0.36
2022-12-19T14:54:41.627Z,-0.38
2022-12-19T14:59:28.665Z,-0.43
2022-12-19T15:02:04.778Z,-0.46
2022-12-19T15:04:52.641Z,-0.49
2022-12-19T15:07:29.958Z,-0.54
2022-12-19T15:11:03.472Z,-0.59
2022-12-19T15:14:52.305Z,-0.63
2022-12-19T15:16:22.139Z,-0.66
2022-12-19T15:18:54.615Z,-0.70
2022-12-19T15:21:25.408Z,-0.69
2022-12-19T15:23:55.857Z,-0.69
2022-12-19T15:26:32.902Z,-0.69
2022-12-19T15:29:01.961Z,-0.70
2022-12-19T15:31:39.152Z,-0.71
2022-12-19T15:34:44.682Z,-0.71
2022-12-19T15:37:15.345Z,-0.72
2022-12-19T15:39:46.842Z,-0.71
2022-12-19T15:42:22.594Z,-0.69
2022-12-19T15:44:55.868Z,-0.66
2022-12-19T15:47:33.280Z,-0.64
2022-12-19T15:50:15.283Z,-0.61
2022-12-19T15:52:45.739Z,-0.60
2022-12-19T15:55:18.679Z,-0.58
2022-12-19T15:57:53.885Z,-0.56
2022-12-19T16:00:27.798Z,-0.54
2022-12-19T16:03:23.387Z,-0.53
2022-12-19T16:05:49.269Z,-0.52
2022-12-19T16:08:22.851Z,-0.51
2022-12-19T16:11:01.337Z,-0.51
2022-12-19T16:13:35.146Z,-0.51
2022-12-19T16:16:12.985Z,-0.51
2022-12-19T16:18:47.405Z,-0.52
2022-12-19T16:21:34.058Z,-0.50
2022-12-19T16:24:04.980Z,-0.51
2022-12-19T16:26:38.793Z,-0.50
2022-12-19T16:29:19.189Z,-0.49
2022-12-19T16:31:49.582Z,-0.48
2022-12-19T16:34:23.659Z,-0.46
2022-12-19T16:36:54.937Z,-0.45
2022-12-19T16:39:25.391Z,-0.44
2022-12-19T16:41:55.868Z,-0.42
2022-12-19T16:44:26.538Z,-0.41
2022-12-19T16:46:56.893Z,-0.37
2022-12-19T16:49:27.886Z,-0.35
2022-12-19T16:51:58.212Z,-0.32
2022-12-19T16:54:28.570Z,-0.32
2022-12-19T16:56:59.521Z,-0.31
2022-12-19T16:59:32.934Z,-0.29
2022-12-19T17:02:15.032Z,-0.29
2022-12-19T17:04:52.114Z,-0.28
2022-12-19T17:07:24.407Z,-0.27
2022-12-19T17:09:55.017Z,-0.26
2022-12-19T17:12:28.541Z,-0.25
2022-12-19T17:15:03.789Z,-0.23
2022-12-19T17:17:35.035Z,-0.22
2022-12-19T17:20:07.001Z,-0.19
2022-12-19T17:22:37.389Z,-0.18
2022-12-19T17:25:22.667Z,-0.17
2022-12-19T17:27:54.268Z,-0.14
2022-12-19T17:30:24.984Z,-0.13
2022-12-19T17:32:57.161Z,-0.12
2022-12-19T17:35:31.671Z,-0.10
2022-12-19T17:38:02.194Z,-0.09
2022-12-19T17:40:34.868Z,-0.08
2022-12-19T17:43:05.258Z,-0.08
2022-12-19T17:45:36.402Z,-0.08
2022-12-19T17:48:16.942Z,-0.08
2022-12-19T17:50:47.299Z,-0.08
2022-12-19T17:53:17.728Z,-0.08
2022-12-19T17:55:48.234Z,-0.09
2022-12-19T17:58:21.604Z,-0.08
2022-12-19T18:00:52.796Z,-0.09
2022-12-19T18:03:26.132Z,-0.09
2022-12-19T18:05:57.839Z,-0.10
2022-12-19T18:08:30.996Z,-0.09
2022-12-19T18:11:03.415Z,-0.10
2022-12-19T18:13:34.158Z,-0.08
2022-12-19T18:16:07.884Z,-0.07
2022-12-19T18:18:39.172Z,-0.07
2022-12-19T18:21:12.337Z,-0.07
2022-12-19T18:23:43.411Z,-0.06
2022-12-19T18:26:14.403Z,-0.07
2022-12-19T18:28:44.966Z,-0.08
2022-12-19T18:31:23.068Z,-0.09
2022-12-19T18:33:55.447Z,-0.11
2022-12-19T18:36:28.593Z,-0.11
2022-12-19T18:39:01.678Z,-0.13
2022-12-19T18:41:32.965Z,-0.14
2022-12-19T18:44:03.582Z,-0.15
2022-12-19T18:46:37.096Z,-0.15
2022-12-19T18:49:13.732Z,-0.16
2022-12-19T18:51:45.030Z,-0.16
2022-12-19T18:54:18.219Z,-0.15
2022-12-19T18:56:57.815Z,-0.15
2022-12-19T19:02:40.600Z,-0.14
2022-12-19T19:05:19.947Z,-0.13
2022-12-19T19:08:18.499Z,-0.12
2022-12-19T19:11:07.854Z,-0.12
2022-12-19T19:14:05.547Z,-0.11
2022-12-19T19:16:37.202Z,-0.10
2022-12-19T19:19:32.029Z,-0.09
2022-12-19T19:22:03.327Z,-0.08
2022-12-19T19:24:48.836Z,-0.08
2022-12-19T19:27:21.031Z,-0.06
2022-12-19T19:29:57.430Z,-0.05
2022-12-19T19:32:55.749Z,-0.03
2022-12-19T19:35:30.642Z,-0.00
2022-12-19T19:38:07.721Z,0.02
2022-12-19T19:40:40.602Z,0.05
2022-12-19T19:43:11.966Z,0.08
2022-12-19T19:45:51.766Z,0.12
2022-12-19T19:48:28.047Z,0.15
2022-12-19T19:51:00.193Z,0.18
2022-12-19T19:54:09.319Z,0.19
2022-12-19T19:57:03.565Z,0.21
2022-12-19T19:59:48.228Z,0.22
2022-12-19T20:02:21.077Z,0.23
2022-12-19T20:05:12.774Z,0.24
2022-12-19T20:07:52.689Z,0.25
2022-12-19T20:10:43.820Z,0.26
2022-12-19T20:13:18.108Z,0.26
2022-12-19T20:15:50.484Z,0.27
2022-12-19T20:18:24.093Z,0.28
2022-12-19T20:20:55.591Z,0.29
2022-12-19T20:23:28.909Z,0.29
2022-12-19T20:26:06.550Z,0.30
2022-12-19T20:28:43.952Z,0.29
2022-12-19T20:31:37.677Z,0.30
2022-12-19T20:34:10.322Z,0.31
2022-12-19T20:36:43.097Z,0.32
2022-12-19T20:39:13.524Z,0.32
2022-12-19T20:41:47.624Z,0.31
2022-12-19T20:44:23.866Z,0.31
2022-12-19T20:47:00.265Z,0.31
2022-12-19T20:49:32.698Z,0.32
2022-12-19T20:52:18.674Z,0.32
2022-12-19T20:54:51.623Z,0.32
2022-12-19T20:57:45.825Z,0.33
2022-12-19T21:00:20.755Z,0.33
2022-12-19T21:03:30.110Z,0.32
2022-12-19T21:06:02.521Z,0.32
2022-12-19T21:08:35.768Z,0.33
2022-12-19T21:11:09.193Z,0.33
2022-12-19T21:13:41.303Z,0.34
2022-12-19T21:16:17.326Z,0.35
2022-12-19T21:18:53.413Z,0.34
2022-12-19T21:21:26.346Z,0.35
2022-12-19T21:23:57.132Z,0.35
2022-12-19T21:26:34.046Z,0.34
2022-12-19T21:29:05.139Z,0.35
2022-12-19T21:31:35.660Z,0.35
2022-12-19T21:34:06.540Z,0.34
2022-12-19T21:36:58.154Z,0.35
2022-12-19T21:39:48.781Z,0.35
2022-12-19T21:42:20.349Z,0.34
2022-12-19T21:45:00.376Z,0.33
2022-12-19T21:47:50.844Z,0.33
2022-12-19T21:50:21.323Z,0.32
2022-12-19T21:52:55.828Z,0.32
2022-12-19T21:55:27.449Z,0.32
2022-12-19T21:57:58.169Z,0.32
2022-12-19T22:00:43.939Z,0.31
2022-12-19T22:03:34.754Z,0.31
2022-12-19T22:06:06.369Z,0.30
2022-12-19T22:08:37.472Z,0.29
2022-12-19T22:11:15.531Z,0.28
2022-12-19T22:14:08.443Z,0.29
2022-12-19T22:16:39.282Z,0.29
2022-12-19T22:19:37.497Z,0.28
2022-12-19T22:22:08.855Z,0.28
2022-12-19T22:24:56.027Z,0.26
2022-12-19T22:27:28.363Z,0.26
2022-12-19T22:30:10.641Z,0.25
2022-12-19T22:32:44.642Z,0.24
2022-12-19T22:35:24.628Z,0.24
2022-12-19T22:37:57.534Z,0.24
2022-12-19T22:40:39.888Z,0.24
2022-12-19T22:43:12.883Z,0.24
2022-12-19T22:45:48.215Z,0.24
2022-12-19T22:48:19.843Z,0.25
2022-12-19T22:50:51.967Z,0.25
2022-12-19T22:53:22.850Z,0.25
2022-12-19T22:55:55.386Z,0.26
2022-12-19T22:58:29.513Z,0.27
2022-12-19T23:01:24.919Z,0.27
2022-12-19T23:03:57.633Z,0.27
2022-12-19T23:06:37.105Z,0.27
2022-12-19T23:09:21.770Z,0.27
2022-12-19T23:11:52.634Z,0.27
2022-12-19T23:14:44.129Z,0.28
2022-12-19T23:17:34.579Z,0.27
2022-12-19T23:20:12.971Z,0.28
2022-12-19T23:22:58.019Z,0.30
2022-12-19T23:25:32.686Z,0.31
2022-12-19T23:28:07.547Z,0.31
2022-12-19T23:30:42.732Z,0.32
2022-12-19T23:33:20.548Z,0.33
2022-12-19T23:35:58.873Z,0.33
2022-12-19T23:38:54.416Z,0.34
2022-12-19T23:41:49.633Z,0.36
2022-12-19T23:44:41.783Z,0.35
2022-12-19T23:47:36.825Z,0.35
2022-12-19T23:50:33.266Z,0.33
2022-12-19T23:53:26.615Z,0.32
2022-12-19T23:56:19.967Z,0.29
2022-12-19T23:59:10.673Z,0.27
